Tiempo atmosférico en la estación meteorológica de VilagarcÍa de Arousa, Pontevedra (32 m.)



Fecha
DESCASC
Temp. máxima en grados centígrados (hora)
DESCASC
Temp. mínima en grados centígrados (hora)
DESCASC
Temp. media en grados centígrados
DESCASC
Racha de viento máxima en m/sg (hora)
DESCASC
Velocidad máxima media en intervalos de 10 minutos(hora)
DESCASC
Precipitaciones diarias en mm
DESCASC
Precipitaciones de 00:00 a 06:00 en mm
DESCASC
Precipitaciones de 06:00 a 12:00 en mm
DESCASC
Precipitaciones de 12:00 a 18:00 en mm
DESCASC
Precipitaciones de 18:00 a 24:00 en mm
DESCASC
02-04-2020 18 (14:40) 10.7 (23:59) 14.3 10.56 (14:40) 6.39 (15:30) 0 0 0 0 0
01-04-2020 16.9 (17:20) 6.6 (08:40) 11.7 8.06 (16:10) 5 (16:10) 14.4 1 0 0 13.4
31-03-2020 10.8 (19:00) 4.8 (00:00) 7.8 15 (00:40) 9.17 (00:30) 1 0 0 1 0
30-03-2020 12.8 (15:10) 6.6 (23:50) 9.7 20.28 (11:40) 11.94 (14:50) 0 0 0 0 0
29-03-2020 21.2 (17:00) 5.7 (00:00) 13.5 10.83 (23:50) 5.83 (22:10) 0 0 0 0 0
28-03-2020 18.2 (17:00) 6.5 (00:00) 12.4 7.5 (17:50) 4.44 (17:50) 0 0 0 0 0
27-03-2020 16 (17:00) 6.9 (00:00) 11.5 9.17 (05:10) 5.28 (16:30) 0 0 0 0 0
26-03-2020 19.4 (15:30) 6.7 (00:00) 13 10 (15:00) 5.83 (15:10) 0 0 0 0 0
25-03-2020 17.4 (17:50) 8.3 (00:00) 12.8 10.56 (16:10) 6.94 (16:40) 0 0 0 0 0
24-03-2020 21.3 (16:10) 8.2 (00:00) 14.7 6.94 (17:10) 4.17 (17:40) 0 0 0 0 0
23-03-2020 18.6 (14:20) 11 (00:00) 14.8 10 (11:20) 5.28 (11:40) 0 0 0 0 0
22-03-2020 19 (16:40) 11.7 (01:50) 15.3 8.61 (20:10) 5 (20:50) 0 0 0 0 0
21-03-2020 15.3 (14:50) 11.6 (00:00) 13.5 6.11 (15:10) 4.17 (15:10) 0.8 0.4 0.2 0 0.2
20-03-2020 13.8 (13:40) 11.4 (00:00) 12.6 4.17 (05:30) 2.22 (05:30) 3.4 0.4 0.6 2.4 0
19-03-2020 18.4 (14:30) 10.3 (00:00) 14.3 6.11 (14:10) 3.89 (14:20) 0.8 0 0 0 0.8
18-03-2020 24.1 (15:50) 8.8 (00:00) 16.5 5.56 (14:10) 3.33 (14:10) 0 0 0 0 0
17-03-2020 20.7 (17:20) 8.5 (00:00) 14.6 11.67 (01:50) 6.94 (00:40) 0 0 0 0 0
16-03-2020 14.1 (14:00) 4.3 (00:00) 9.2 14.17 (14:30) 6.67 (15:20) 0.2 0 0.2 0 0
15-03-2020 14 (10:40) 5.2 (00:00) 9.6 11.11 (11:30) 5.56 (11:30) 7 0 2.8 3 1.2
14-03-2020 20 (16:40) 6.5 (00:00) 13.3 9.72 (12:20) 4.72 (12:20) 0 0 0 0 0
13-03-2020 16.3 (17:30) 9.1 (02:10) 12.7 14.17 (04:40) 7.22 (13:00) 0 0 0 0 0
12-03-2020 16.9 (13:30) 10.1 (00:00) 13.5 11.39 (16:50) 6.39 (16:50) 0 0 0 0 0
11-03-2020 18.2 (16:20) 11 (00:00) 14.6 5.83 (18:30) 3.61 (19:10) 0 0 0 0 0
10-03-2020 15.4 (14:40) 8 (00:00) 11.7 6.67 (12:40) 3.61 (15:50) 0 0 0 0 0
09-03-2020 15.2 (14:30) 6.6 (00:00) 10.9 6.39 (17:00) 3.89 (16:40) 0 0 0 0 0
08-03-2020 15.1 (16:20) 9.9 (00:00) 12.5 11.67 (11:40) 6.11 (12:10) 8 0 7.2 0.8 0
07-03-2020 14.9 (17:00) 7.7 (00:00) 11.3 6.67 (18:00) 3.89 (18:10) 0 0 0 0 0
06-03-2020 14.7 (15:30) 8.9 (00:00) 11.8 10 (03:30) 6.11 (03:30) 0.8 0.2 0.6 0 0
05-03-2020 15.1 (00:00) 10.9 (00:00) 13 19.17 (00:50) 8.33 (02:10) 26 22.6 0.4 0.6 2.4

Gráficas

Temp. máximas Temp. mínimas Temp. medias Precipitaciones Rachas de viento máximas Velocidades máximas media en intervalos de 10 minutos

Datos horarios

Fecha y hora oficial Temperatura (ºC) Velocidad del viento (km/h) Dirección del viento Racha (km/h) Dirección de racha Precipitación (mm) Presión (hPa) Tendencia (hPa) Humedad (%)
2020-04-03 23:00:00 12.8 2 Este 8 Sur 0 -- -- 77
2020-04-03 22:00:00 13.7 5 Sur 10 Sur 0 -- -- 71
2020-04-03 21:00:00 16.7 4 Sur 11 Oeste 0 -- -- 62
2020-04-03 20:00:00 18.6 4 Oeste 14 Noroeste 0 -- -- 55
2020-04-03 19:00:00 18.7 8 Oeste 13 Oeste 0 -- -- 58
2020-04-03 18:00:00 18.1 9 Noroeste 20 Noroeste 0 -- -- 63
2020-04-03 17:00:00 17.9 11 Noroeste 15 Noroeste 0 -- -- 64
2020-04-03 16:00:00 17.5 10 Noroeste 21 Oeste 0 -- -- 65
2020-04-03 15:00:00 16.4 12 Noroeste 17 Noroeste 0 -- -- 65
2020-04-03 14:00:00 15.4 12 Noroeste 17 Noroeste 0 -- -- 68
2020-04-03 13:00:00 15.6 10 Noroeste 15 Oeste 0 -- -- 68
2020-04-03 12:00:00 13.8 2 Noroeste 6 Norte 0 -- -- 70
2020-04-03 11:00:00 11.3 3 Nordeste 8 Este 0 -- -- 78
2020-04-03 10:00:00 8.8 6 Sudeste 14 Sudeste 0 -- -- 84
2020-04-03 09:00:00 6 6 Sudeste 13 Sudeste 0 -- -- 95
2020-04-03 08:00:00 5.2 4 Este 5 Este 0 -- -- 93
2020-04-03 07:00:00 6.2 3 Sudeste 6 Sudeste 0 -- -- 91
2020-04-03 06:00:00 7.1 2 Nordeste 8 Nordeste 0 -- -- 87
2020-04-03 05:00:00 8.4 4 Norte 10 Nordeste 0 -- -- 84
2020-04-03 04:00:00 9.1 6 Norte 12 Nordeste 0 -- -- 81
2020-04-03 03:00:00 9.4 4 Nordeste 21 Este 0 -- -- 79
2020-04-03 02:00:00 10.2 13 Nordeste 26 Nordeste 0 -- -- 76
2020-04-03 01:00:00 10.4 12 Nordeste 26 Nordeste 0 -- -- 76
2020-04-03 00:00:00 10.7 7 Norte 28 Este 0 -- -- 79
2020-04-02 23:00:00 11.5 10 Nordeste 30 Norte 0 -- -- 79
2020-04-02 22:00:00 12.6 10 Nordeste 21 Este 0 -- -- 75
2020-04-02 21:00:00 14.2 6 Nordeste 28 Norte 0 -- -- 71
2020-04-02 20:00:00 16.5 13 Nordeste 24 Norte 0 -- -- 64
2020-04-02 19:00:00 17.6 14 Norte 35 Nordeste 0 -- -- 57
2020-04-02 18:00:00 17.8 17 Nordeste 32 Nordeste 0 -- -- 57
2020-04-02 17:00:00 17.6 17 Este 33 Nordeste 0 -- -- 59
2020-04-02 16:00:00 17.1 19 Nordeste 38 Nordeste 0 -- -- 63
2020-04-02 15:00:00 17.3 17 Nordeste 38 Este 0 -- -- 64
2020-04-02 14:00:00 16.8 22 Nordeste 38 Nordeste 0 -- -- 66
2020-04-02 13:00:00 15.9 19 Nordeste 36 Nordeste 0 -- -- 69
2020-04-02 12:00:00 15.8 17 Nordeste 33 Nordeste 0 -- -- 72
2020-04-02 11:00:00 14.1 13 Nordeste 25 Norte 0 -- -- 78
2020-04-02 10:00:00 12.6 6 Nordeste 28 Este 0 -- -- 84
2020-04-02 09:00:00 11.4 12 Nordeste 22 Nordeste 0 -- -- 88
2020-04-02 08:00:00 11.3 9 Norte 25 Nordeste 0 -- -- 88
2020-04-02 07:00:00 11 8 Nordeste 20 Nordeste 0 -- -- 90
2020-04-02 06:00:00 11.2 11 Nordeste 32 Nordeste 0 -- -- 88
2020-04-02 05:00:00 11.3 9 Nordeste 18 Norte 0 -- -- 86
2020-04-02 04:00:00 11.7 9 Norte 21 Nordeste 0 -- -- 86
2020-04-02 03:00:00 11.7 10 Nordeste 23 Nordeste 0 -- -- 87
2020-04-02 02:00:00 11.7 10 Nordeste 25 Nordeste 0 -- -- 89
2020-04-02 01:00:00 11.7 10 Nordeste 25 Nordeste 0 -- -- 91
2020-04-02 00:00:00 11.4 9 Nordeste 19 Nordeste 0 -- -- 93
2020-04-01 23:00:00 11.5 0 Calma 11 Noroeste 0 -- -- 95
2020-04-01 22:00:00 11.4 0 Calma 6 Sur 0 -- -- 96
2020-04-01 21:00:00 11.7 2 Noroeste 6 Norte 0 -- -- 94
2020-04-01 20:00:00 11.8 5 Norte 12 Noroeste 4.4 -- -- 93
2020-04-01 19:00:00 12.4 5 Noroeste 26 Norte 9 -- -- 81
2020-04-01 18:00:00 16.4 11 Oeste 22 Oeste 0 -- -- 61
2020-04-01 17:00:00 16.3 12 Oeste 29 Oeste 0 -- -- 61
2020-04-01 16:00:00 15.5 14 Oeste 27 Oeste 0 -- -- 60
2020-04-01 15:00:00 14.5 13 Oeste 21 Oeste 0 -- -- 59
2020-04-01 14:00:00 13.3 12 Noroeste 19 Oeste 0 -- -- 65
2020-04-01 13:00:00 13.1 8 Norte 17 Norte 0 -- -- 67
2020-04-01 12:00:00 12.3 7 Norte 14 Norte 0 -- -- 78
2020-04-01 11:00:00 10.8 7 Norte 15 Nordeste 0 -- -- 83
2020-04-01 10:00:00 9.4 4 Este 9 Sudeste 0 -- -- 93
2020-04-01 09:00:00 6.9 4 Sur 6 Sur 0 -- -- 97
2020-04-01 08:00:00 7.1 4 Sudeste 6 Sur 0 -- -- 96
2020-04-01 07:00:00 7.6 3 Sudeste 6 Sur 0 -- -- 97
2020-04-01 06:00:00 7.8 4 Sudeste 6 Sudeste 0 -- -- 97
2020-04-01 05:00:00 7.8 3 Este 9 Sudeste 0 -- -- 97
2020-04-01 04:00:00 8 5 Este 13 Sudeste 0 -- -- 95
2020-04-01 03:00:00 8.4 3 Sudeste 12 Sudeste 1 -- -- 92
2020-04-01 02:00:00 9.1 9 Sudeste 19 Sudeste 0 -- -- 83
2020-04-01 01:00:00 9.2 5 Nordeste 17 Norte 0 -- -- 81
2020-04-01 00:00:00 9.1 12 Norte 24 Norte 0 -- -- 83
2020-03-31 23:00:00 9.4 5 Norte 29 Este 0 -- -- 82
2020-03-31 22:00:00 9.8 9 Este 21 Este 0 -- -- 75
2020-03-31 21:00:00 9.8 3 Noroeste 19 Este 0 -- -- 76
2020-03-31 20:00:00 10.2 8 Nordeste 23 Este 0 -- -- 73
2020-03-31 19:00:00 10.8 6 Nordeste 22 Este 0 -- -- 70
2020-03-31 18:00:00 10.3 12 Este 31 Este 0 -- -- 68
2020-03-31 17:00:00 10 19 Este 35 Este 0 -- -- 67
2020-03-31 16:00:00 9.4 3 Sudoeste 13 Noroeste 0 -- -- 78
2020-03-31 15:00:00 7.1 7 Nordeste 33 Este 1 -- -- 83
2020-03-31 14:00:00 7.2 19 Este 43 Este 0 -- -- 75
2020-03-31 13:00:00 9.7 24 Este 44 Este 0 -- -- 54
2020-03-31 12:00:00 8.7 14 Este 29 Este 0 -- -- 61
2020-03-31 11:00:00 7.2 19 Este 33 Este 0 -- -- 67
2020-03-31 10:00:00 5.8 10 Este 28 Nordeste 0 -- -- 74
2020-03-31 09:00:00 4.8 10 Este 31 Nordeste 0 -- -- 75
2020-03-31 08:00:00 5.1 18 Este 39 Nordeste 0 -- -- 73
2020-03-31 07:00:00 5.4 20 Este 40 Este 0 -- -- 72
2020-03-31 06:00:00 5.7 22 Nordeste 41 Nordeste 0 -- -- 70
2020-03-31 05:00:00 5.8 19 Este 42 Nordeste 0 -- -- 69
2020-03-31 04:00:00 6 22 Nordeste 42 Nordeste 0 -- -- 67
2020-03-31 03:00:00 5.9 14 Nordeste 41 Este 0 -- -- 70
2020-03-31 02:00:00 6.3 23 Nordeste 42 Este 0 -- -- 68
2020-03-31 01:00:00 6.5 29 Este 54 Nordeste 0 -- -- 66
2020-03-31 00:00:00 6.6 28 Nordeste 51 Nordeste 0 -- -- 64
2020-03-30 23:00:00 7.3 27 Nordeste 62 Este 0 -- -- 56
2020-03-30 22:00:00 8 31 Este 57 Este 0 -- -- 50
2020-03-30 21:00:00 8.9 32 Este 64 Nordeste 0 -- -- 50
2020-03-30 20:00:00 10.4 29 Este 62 Este 0 -- -- 45
2020-03-30 19:00:00 11.1 37 Este 60 Nordeste 0 -- -- 41
2020-03-30 18:00:00 12.1 30 Este 59 Nordeste 0 -- -- 42
2020-03-30 17:00:00 12.5 30 Este 62 Nordeste 0 -- -- 42
2020-03-30 16:00:00 12.7 34 Este 69 Este 0 -- -- 45
2020-03-30 15:00:00 12.4 38 Este 68 Este 0 -- -- 44
2020-03-30 14:00:00 12.7 30 Este 63 Nordeste 0 -- -- 46
2020-03-30 13:00:00 12.3 33 Este 67 Este 0 -- -- 47
2020-03-30 12:00:00 10.7 39 Este 73 Nordeste 0 -- -- 50
2020-03-30 11:00:00 10 32 Este 64 Este 0 -- -- 54
2020-03-30 10:00:00 8.8 32 Este 68 Este 0 -- -- 59
2020-03-30 09:00:00 8.9 30 Este 61 Este 0 -- -- 59
2020-03-30 08:00:00 9 23 Este 53 Este 0 -- -- 55
2020-03-30 07:00:00 9 29 Este 50 Este 0 -- -- 63
2020-03-30 06:00:00 9.2 24 Este 50 Este 0 -- -- 66
2020-03-30 05:00:00 9.5 24 Este 50 Nordeste 0 -- -- 67
2020-03-30 04:00:00 9.8 30 Este 60 Este 0 -- -- 68
2020-03-30 03:00:00 10.1 26 Este 49 Este 0 -- -- 69
2020-03-30 02:00:00 10.7 20 Este 47 Este 0 -- -- 70
2020-03-30 01:00:00 11.3 20 Este 41 Este 0 -- -- 70
2020-03-30 00:00:00 11.9 19 Este 39 Este 0 -- -- 68
2020-03-29 23:00:00 12.8 17 Este 37 Este 0 -- -- 61
2020-03-29 22:00:00 13.6 17 Este 34 Nordeste 0 -- -- 58
2020-03-29 21:00:00 15.5 15 Nordeste 34 Nordeste 0 -- -- 54
2020-03-29 20:00:00 17.9 15 Este 37 Este 0 -- -- 52
2020-03-29 19:00:00 19.3 21 Nordeste 37 Este 0 -- -- 47
2020-03-29 18:00:00 21 14 Norte 26 Nordeste 0 -- -- 42
2020-03-29 17:00:00 21.2 9 Nordeste 22 Norte 0 -- -- 42
2020-03-29 16:00:00 20.5 12 Norte 20 Norte 0 -- -- 38
2020-03-29 15:00:00 19.5 12 Norte 21 Norte 0 -- -- 45
2020-03-29 14:00:00 18.4 10 Norte 23 Norte 0 -- -- 52
2020-03-29 13:00:00 16.3 8 Norte 14 Norte 0 -- -- 61
2020-03-29 12:00:00 13.9 4 Noroeste 8 Noroeste 0 -- -- 68
2020-03-29 11:00:00 11.3 4 Noroeste 6 Noroeste 0 -- -- 76
2020-03-29 10:00:00 9.3 3 Este 6 Sudeste 0 -- -- 84
2020-03-29 09:00:00 6.6 3 Sudeste 7 Sudeste 0 -- -- 91
2020-03-29 08:00:00 6.2 4 Sudeste 8 Sudeste 0 -- -- 89
2020-03-29 07:00:00 6.2 3 Sudeste 6 Sudeste 0 -- -- 92
2020-03-29 06:00:00 6.1 4 Este 6 Sur 0 -- -- 90
2020-03-29 05:00:00 6.8 2 Sudeste 7 Este 0 -- -- 87
2020-03-29 03:00:00 9.1 2 Sur 5 Sudeste 0 -- -- 76
2020-03-29 01:00:00 9.6 2 Norte 8 Sudeste 0 -- -- 75
2020-03-29 00:00:00 10.2 2 Sudeste 7 Sudeste 0 -- -- 71
2020-03-28 23:00:00 11.5 4 Este 14 Este 0 -- -- 67
2020-03-28 22:00:00 11.9 3 Este 8 Sudoeste 0 -- -- 67
2020-03-28 21:00:00 12.9 4 Sur 13 Noroeste 0 -- -- 67
2020-03-28 20:00:00 15.1 6 Oeste 15 Noroeste 0 -- -- 61
2020-03-28 19:00:00 16.9 8 Noroeste 21 Oeste 0 -- -- 51
2020-03-28 18:00:00 17.3 14 Oeste 27 Sudoeste 0 -- -- 49
2020-03-28 17:00:00 18.2 12 Oeste 24 Sudoeste 0 -- -- 44
2020-03-28 16:00:00 17.7 11 Oeste 22 Sudoeste 0 -- -- 47
2020-03-28 15:00:00 17.6 12 Oeste 18 Oeste 0 -- -- 41
2020-03-28 14:00:00 16.9 12 Noroeste 16 Oeste 0 -- -- 48
2020-03-28 13:00:00 16 7 Noroeste 11 Noroeste 0 -- -- 50
2020-03-28 12:00:00 14 4 Este 13 Sudeste 0 -- -- 56
2020-03-28 11:00:00 12.3 8 Sudeste 12 Sudeste 0 -- -- 58
2020-03-28 10:00:00 9.5 4 Este 10 Este 0 -- -- 74
2020-03-28 09:00:00 7.3 3 Este 6 Este 0 -- -- 80
2020-03-28 08:00:00 6.9 4 Este 11 Este 0 -- -- 80
2020-03-28 07:00:00 6.8 4 Este 8 Sudeste 0 -- -- 79
2020-03-28 06:00:00 6.7 4 Este 6 Sudeste 0 -- -- 79
2020-03-28 05:00:00 7.2 0 Calma 5 Sudeste 0 -- -- 81
2020-03-28 04:00:00 8.2 4 Este 9 Este 0 -- -- 71
2020-03-28 03:00:00 7.4 5 Este 9 Este 0 -- -- 81
2020-03-28 02:00:00 7.2 5 Sudeste 10 Sudeste 0 -- -- 85
2020-03-28 01:00:00 7.5 5 Este 8 Este 0 -- -- 84
2020-03-28 00:00:00 8.6 0 Calma 8 Sudeste 0 -- -- 80
2020-03-27 23:00:00 8.7 6 Este 9 Este 0 -- -- 80
2020-03-27 22:00:00 9.5 5 Este 8 Este 0 -- -- 79
2020-03-27 21:00:00 10.8 3 Sudeste 8 Sudoeste 0 -- -- 72
2020-03-27 20:00:00 13.2 6 Sudoeste 13 Oeste 0 -- -- 62
2020-03-27 19:00:00 15 8 Oeste 19 Oeste 0 -- -- 58
2020-03-27 18:00:00 15.3 13 Oeste 29 Oeste 0 -- -- 58
2020-03-27 17:00:00 16 13 Oeste 30 Oeste 0 -- -- 53
2020-03-27 16:00:00 15.4 16 Oeste 33 Oeste 0 -- -- 50
2020-03-27 15:00:00 15.6 17 Oeste 27 Oeste 0 -- -- 47
2020-03-27 14:00:00 15.2 17 Noroeste 23 Noroeste 0 -- -- 50
2020-03-27 13:00:00 15.3 7 Norte 21 Norte 0 -- -- 49
2020-03-27 12:00:00 14.7 8 Sudeste 18 Este 0 -- -- 48
2020-03-27 11:00:00 13 8 Este 23 Sudeste 0 -- -- 53
2020-03-27 10:00:00 10.2 6 Nordeste 21 Norte 0 -- -- 64
2020-03-27 09:00:00 8.2 9 Norte 20 Nordeste 0 -- -- 69
2020-03-27 08:00:00 7.1 5 Nordeste 14 Nordeste 0 -- -- 73
2020-03-27 07:00:00 7.1 5 Norte 25 Nordeste 0 -- -- 75
2020-03-27 06:00:00 7.5 8 Nordeste 33 Este 0 -- -- 73
2020-03-27 05:00:00 7.8 12 Nordeste 29 Nordeste 0 -- -- 75
2020-03-27 04:00:00 8.6 12 Nordeste 31 Nordeste 0 -- -- 72
2020-03-27 03:00:00 8.3 13 Nordeste 28 Nordeste 0 -- -- 74
2020-03-27 02:00:00 8.1 10 Nordeste 24 Nordeste 0 -- -- 74
2020-03-27 01:00:00 8.4 10 Nordeste 26 Nordeste 0 -- -- 72
2020-03-27 00:00:00 9.2 13 Nordeste 31 Nordeste 0 -- -- 67
2020-03-26 23:00:00 10.1 13 Este 34 Este 0 -- -- 63
2020-03-26 22:00:00 10.7 9 Nordeste 30 Nordeste 0 -- -- 68
2020-03-26 21:00:00 11.6 18 Nordeste 31 Nordeste 0 -- -- 67
2020-03-26 20:00:00 13.2 14 Nordeste 28 Nordeste 0 -- -- 61
2020-03-26 19:00:00 15.7 15 Norte 28 Norte 0 -- -- 55
2020-03-26 18:00:00 17.4 13 Nordeste 27 Norte 0 -- -- 49
2020-03-26 17:00:00 18.9 14 Nordeste 31 Nordeste 0 -- -- 41
2020-03-26 16:00:00 19.2 15 Nordeste 34 Este 0 -- -- 35
2020-03-26 15:00:00 19.3 16 Este 36 Este 0 -- -- 29
2020-03-26 14:00:00 18 13 Nordeste 32 Este 0 -- -- 43
2020-03-26 13:00:00 16.5 15 Nordeste 25 Norte 0 -- -- 48
2020-03-26 12:00:00 13.8 11 Norte 19 Norte 0 -- -- 64
2020-03-26 11:00:00 11.8 9 Norte 19 Norte 0 -- -- 69
2020-03-26 10:00:00 10.6 9 Norte 18 Nordeste 0 -- -- 76
2020-03-26 09:00:00 9.4 2 Sudeste 9 Sur 0 -- -- 87
2020-03-26 08:00:00 6.7 4 Sudoeste 12 Este 0 -- -- 95
2020-03-26 07:00:00 7.2 3 Sur 14 Norte 0 -- -- 93
2020-03-26 06:00:00 8.2 4 Sur 15 Norte 0 -- -- 92
2020-03-26 05:00:00 9.5 9 Nordeste 19 Nordeste 0 -- -- 92
2020-03-26 04:00:00 9.5 3 Nordeste 6 Nordeste 0 -- -- 97
2020-03-26 03:00:00 9.6 3 Sur 5 Sur 0 -- -- 97
2020-03-26 02:00:00 9.5 2 Sudeste 8 Sudeste 0 -- -- 97
2020-03-26 01:00:00 10 0 Calma 8 Este 0 -- -- 96
2020-03-26 00:00:00 10.2 3 Este 6 Este 0 -- -- 96
2020-03-25 23:00:00 10.9 3 Sudeste 6 Oeste 0 -- -- 94
2020-03-25 22:00:00 12 4 Sur 6 Sur 0 -- -- 90
2020-03-25 21:00:00 12.8 5 Este 9 Sudeste 0 -- -- 90
2020-03-25 20:00:00 14.9 3 Sudeste 13 Sur 0 -- -- 80
2020-03-25 19:00:00 16.6 8 Sur 13 Sur 0 -- -- 75
2020-03-25 18:00:00 17.1 5 Sudeste 24 Sudoeste 0 -- -- 74
2020-03-25 17:00:00 16.2 17 Sudoeste 38 Sudoeste 0 -- -- 78
2020-03-25 16:00:00 16.3 22 Sudoeste 32 Sudoeste 0 -- -- 76
2020-03-25 15:00:00 16.7 17 Sudoeste 28 Sudoeste 0 -- -- 76
2020-03-25 14:00:00 15.9 18 Sudoeste 27 Sudoeste 0 -- -- 80
2020-03-25 13:00:00 15.6 15 Sudoeste 22 Sudoeste 0 -- -- 82
2020-03-25 12:00:00 15.1 11 Noroeste 16 Oeste 0 -- -- 79
2020-03-25 11:00:00 14.1 9 Noroeste 12 Noroeste 0 -- -- 78
2020-03-25 10:00:00 12.5 4 Noroeste 6 Oeste 0 -- -- 87
2020-03-25 09:00:00 11 2 Sur 4 Este 0 -- -- 89
2020-03-25 08:00:00 8.4 0 Calma 6 Sur 0 -- -- 96
2020-03-25 07:00:00 8.6 0 Calma 4 Sudeste 0 -- -- 93
2020-03-25 06:00:00 9.1 0 Calma 3 Noroeste 0 -- -- 92
2020-03-25 05:00:00 9.5 0 Calma 8 Sudeste 0 -- -- 91
2020-03-25 04:00:00 9.6 4 Este 4 Este 0 -- -- 91
2020-03-25 03:00:00 10.4 2 Este 4 Sudeste 0 -- -- 87
2020-03-25 02:00:00 11.8 0 Calma 9 Sudeste 0 -- -- 83
2020-03-25 01:00:00 12.2 6 Sudeste 10 Este 0 -- -- 81
2020-03-25 00:00:00 12.2 5 Sudeste 8 Sudeste 0 -- -- 82
2020-03-24 23:00:00 13.1 4 Sudeste 6 Sudeste 0 -- -- 79
2020-03-24 22:00:00 13.6 6 Este 8 Este 0 -- -- 77
2020-03-24 21:00:00 15.5 4 Sudeste 15 Oeste 0 -- -- 69
2020-03-24 20:00:00 17.8 9 Sudoeste 13 Sudoeste 0 -- -- 58
2020-03-24 19:00:00 20 7 Sudoeste 21 Sudoeste 0 -- -- 52
2020-03-24 18:00:00 20 13 Sudoeste 25 Sudoeste 0 -- -- 50
2020-03-24 17:00:00 20.8 13 Oeste 24 Sudoeste 0 -- -- 47
2020-03-24 16:00:00 21.2 13 Oeste 23 Noroeste 0 -- -- 52
2020-03-24 15:00:00 20.8 13 Noroeste 20 Oeste 0 -- -- 47
2020-03-24 14:00:00 20.3 12 Noroeste 19 Oeste 0 -- -- 51
2020-03-24 13:00:00 20.2 9 Norte 16 Norte 0 -- -- 55
2020-03-24 12:00:00 18.5 8 Norte 18 Norte 0 -- -- 59
2020-03-24 11:00:00 16.2 8 Norte 13 Noroeste 0 -- -- 69
2020-03-24 10:00:00 15 2 Nordeste 6 Noroeste 0 -- -- 74
2020-03-24 09:00:00 11 3 Noroeste 5 Noroeste 0 -- -- 87
2020-03-24 08:00:00 9.3 3 Noroeste 8 Este 0 -- -- 94
2020-03-24 07:00:00 8.5 0 Calma 4 Noroeste 0 -- -- 93
2020-03-24 06:00:00 9.1 0 Calma 8 Este 0 -- -- 93
2020-03-24 05:00:00 9.6 2 Este 10 Este 0 -- -- 91
2020-03-24 04:00:00 10.4 0 Calma 6 Sur 0 -- -- 88
2020-03-24 03:00:00 11 3 Norte 18 Norte 0 -- -- 86
2020-03-24 02:00:00 11.1 10 Norte 18 Nordeste 0 -- -- 86
2020-03-24 01:00:00 11.1 7 Nordeste 14 Norte 0 -- -- 85
2020-03-24 00:00:00 11 6 Nordeste 17 Nordeste 0 -- -- 85
2020-03-23 23:00:00 11.1 7 Norte 14 Norte 0 -- -- 84
2020-03-23 22:00:00 11.5 4 Nordeste 23 Este 0 -- -- 81
2020-03-23 21:00:00 11.8 9 Norte 32 Norte 0 -- -- 81
2020-03-23 20:00:00 12.9 10 Nordeste 26 Norte 0 -- -- 77
2020-03-23 19:00:00 14.4 11 Nordeste 30 Norte 0 -- -- 75
2020-03-23 18:00:00 15.8 16 Norte 32 Nordeste 0 -- -- 71
2020-03-23 17:00:00 17.6 18 Norte 35 Norte 0 -- -- 66
2020-03-23 16:00:00 18.4 15 Norte 31 Norte 0 -- -- 65
2020-03-23 15:00:00 18.5 14 Nordeste 28 Norte 0 -- -- 65
2020-03-23 14:00:00 18.4 13 Nordeste 30 Nordeste 0 -- -- 63
2020-03-23 13:00:00 18.2 11 Nordeste 31 Este 0 -- -- 61
2020-03-23 12:00:00 16.8 15 Este 36 Este 0 -- -- 67
2020-03-23 11:00:00 15.4 15 Nordeste 32 Nordeste 0 -- -- 70
2020-03-23 10:00:00 14.2 13 Nordeste 33 Este 0 -- -- 75
2020-03-23 09:00:00 12.9 15 Este 31 Nordeste 0 -- -- 79
2020-03-23 08:00:00 11.4 5 Este 17 Este 0 -- -- 85
2020-03-23 07:00:00 11.3 7 Este 20 Este 0 -- -- 85
2020-03-23 06:00:00 11.6 8 Nordeste 26 Nordeste 0 -- -- 85
2020-03-23 05:00:00 11.7 13 Nordeste 24 Norte 0 -- -- 84
2020-03-23 04:00:00 11.9 9 Nordeste 21 Nordeste 0 -- -- 83
2020-03-23 03:00:00 11.9 5 Este 15 Nordeste 0 -- -- 82
2020-03-23 02:00:00 11.8 7 Nordeste 13 Nordeste 0 -- -- 82
2020-03-23 01:00:00 12.4 6 Nordeste 22 Este 0 -- -- 79
2020-03-23 00:00:00 12.7 10 Nordeste 25 Nordeste 0 -- -- 78
2020-03-22 23:00:00 13.3 7 Norte 27 Nordeste 0 -- -- 81
2020-03-22 22:00:00 13.6 13 Nordeste 27 Nordeste 0 -- -- 84
2020-03-22 21:00:00 13.9 14 Nordeste 31 Nordeste 0 -- -- 83
2020-03-22 20:00:00 14.6 14 Nordeste 28 Nordeste 0 -- -- 81
2020-03-22 19:00:00 17 16 Nordeste 28 Nordeste 0 -- -- 74
2020-03-22 18:00:00 18.8 10 Norte 19 Norte 0 -- -- 66
2020-03-22 17:00:00 18.9 9 Norte 19 Norte 0 -- -- 65
2020-03-22 16:00:00 18.3 9 Norte 22 Nordeste 0 -- -- 69
2020-03-22 15:00:00 17.2 13 Norte 24 Norte 0 -- -- 70
2020-03-22 14:00:00 16.5 13 Norte 22 Norte 0 -- -- 71
2020-03-22 13:00:00 16.2 12 Nordeste 22 Nordeste 0 -- -- 73
2020-03-22 12:00:00 14.7 11 Nordeste 27 Nordeste 0 -- -- 76
2020-03-22 11:00:00 14.2 12 Nordeste 22 Este 0 -- -- 79
2020-03-22 10:00:00 12.3 9 Nordeste 15 Norte 0 -- -- 90
2020-03-22 09:00:00 11.8 7 Norte 22 Nordeste 0 -- -- 91
2020-03-22 08:00:00 11.8 10 Este 21 Este 0 -- -- 90
2020-03-22 07:00:00 11.9 9 Este 18 Nordeste 0 -- -- 89
2020-03-22 06:00:00 11.9 9 Nordeste 18 Este 0 -- -- 91
2020-03-22 05:00:00 11.9 4 Norte 12 Nordeste 0 -- -- 94
2020-03-22 04:00:00 12.1 6 Nordeste 21 Este 0 -- -- 91
2020-03-22 03:00:00 11.8 8 Nordeste 16 Nordeste 0 -- -- 96
2020-03-22 02:00:00 11.7 4 Este 9 Nordeste 0 -- -- 99
2020-03-22 01:00:00 12.1 3 Sudeste 5 Sudeste 0 -- -- 98
2020-03-22 00:00:00 12.5 4 Nordeste 9 Nordeste 0.2 -- -- 98
2020-03-21 23:00:00 12.8 2 Este 4 Sudoeste 0 -- -- 97
2020-03-21 22:00:00 13 3 Oeste 8 Oeste 0 -- -- 95
2020-03-21 21:00:00 13.1 3 Este 6 Este 0 -- -- 93
2020-03-21 20:00:00 13.4 3 Sudeste 17 Sudoeste 0 -- -- 92
2020-03-21 19:00:00 13.6 7 Sudoeste 16 Sudoeste 0 -- -- 90
2020-03-21 18:00:00 13.8 10 Sudoeste 22 Sudoeste 0 -- -- 88
2020-03-21 17:00:00 13.8 9 Oeste 20 Oeste 0 -- -- 88
2020-03-21 16:00:00 14.5 9 Oeste 22 Sudoeste 0 -- -- 83
2020-03-21 15:00:00 15.1 14 Oeste 22 Oeste 0 -- -- 79
2020-03-21 14:00:00 14.4 10 Oeste 18 Oeste 0 -- -- 90
2020-03-21 13:00:00 14.9 11 Sudoeste 17 Oeste 0 -- -- 85
2020-03-21 12:00:00 15.1 6 Noroeste 10 Noroeste 0 -- -- 88
2020-03-21 11:00:00 14.7 3 Este 13 Sudeste 0 -- -- 90
2020-03-21 10:00:00 13.7 6 Sur 16 Sudoeste 0 -- -- 95
2020-03-21 09:00:00 12.2 4 Noroeste 8 Noroeste 0 -- -- 100
2020-03-21 08:00:00 11.7 0 Calma 5 Este 0 -- -- 100
2020-03-21 07:00:00 11.7 3 Sur 6 Norte 0.2 -- -- 100
2020-03-21 06:00:00 11.8 3 Sudeste 11 Sudeste 0 -- -- 100
2020-03-21 05:00:00 11.7 4 Oeste 8 Nordeste 0 -- -- 100
2020-03-21 04:00:00 11.7 6 Norte 14 Norte 0.2 -- -- 100
2020-03-21 03:00:00 11.9 0 Calma 4 Sur 0.2 -- -- 100
2020-03-21 02:00:00 11.8 0 Calma 5 Sur 0 -- -- 100
2020-03-21 01:00:00 11.9 2 Sudeste 11 Noroeste 0 -- -- 100
2020-03-21 00:00:00 11.7 2 Oeste 8 Sur 0 -- -- 100
2020-03-20 23:00:00 11.6 2 Norte 5 Sudeste 0 -- -- 100
2020-03-20 22:00:00 11.4 3 Sudeste 5 Sudeste 0 -- -- 99
2020-03-20 21:00:00 12 0 Calma 6 Sur 0 -- -- 98
2020-03-20 20:00:00 12.8 3 Sudoeste 5 Noroeste 0 -- -- 96
2020-03-20 19:00:00 13.6 3 Noroeste 6 Noroeste 0 -- -- 95
2020-03-20 18:00:00 13.5 4 Noroeste 7 Oeste 0.4 -- -- 97
2020-03-20 17:00:00 13.4 4 Norte 7 Noroeste 0.4 -- -- 97
2020-03-20 16:00:00 13.5 5 Noroeste 9 Noroeste 0.4 -- -- 97
2020-03-20 15:00:00 13.5 6 Oeste 10 Oeste 0.2 -- -- 97
2020-03-20 14:00:00 13.6 6 Noroeste 9 Oeste 0.2 -- -- 95
2020-03-20 13:00:00 13.4 3 Nordeste 5 Nordeste 0.8 -- -- 95
2020-03-20 12:00:00 13.3 3 Sudoeste 9 Sudoeste 0.2 -- -- 94
2020-03-20 11:00:00 13.4 2 Oeste 4 Noroeste 0 -- -- 91
2020-03-20 10:00:00 12.9 2 Este 5 Este 0 -- -- 97
2020-03-20 09:00:00 12.5 3 Este 4 Este 0 -- -- 99
2020-03-20 08:00:00 12.5 2 Este 8 Sur 0.2 -- -- 97
2020-03-20 07:00:00 12.5 4 Sudoeste 12 Sudoeste 0.2 -- -- 96
2020-03-20 06:00:00 12.6 8 Sudoeste 15 Sur 0 -- -- 94
2020-03-20 05:00:00 12.7 7 Sudoeste 11 Sudoeste 0 -- -- 96
2020-03-20 04:00:00 12.7 7 Sudoeste 13 Sudoeste 0 -- -- 97
2020-03-20 03:00:00 12.8 5 Sudoeste 10 Sudoeste 0 -- -- 98
2020-03-20 02:00:00 12.7 5 Sudoeste 9 Sudoeste 0 -- -- 98
2020-03-20 01:00:00 12.9 3 Sur 6 Oeste 0.4 -- -- 97
2020-03-20 00:00:00 13.1 4 Oeste 7 Sudoeste 0.6 -- -- 96
2020-03-19 23:00:00 13.1 3 Sudoeste 6 Sudoeste 0 -- -- 95
2020-03-19 22:00:00 13.4 3 Oeste 8 Sudoeste 0.2 -- -- 91
2020-03-19 21:00:00 14.3 6 Sudoeste 10 Sudoeste 0 -- -- 83
2020-03-19 20:00:00 14.7 3 Sudoeste 12 Sur 0 -- -- 82
2020-03-19 19:00:00 15.8 4 Sur 15 Sudoeste 0 -- -- 77
2020-03-19 18:00:00 16 9 Sudoeste 13 Sudoeste 0 -- -- 80
2020-03-19 17:00:00 16.4 7 Oeste 20 Oeste 0 -- -- 78
2020-03-19 16:00:00 17.5 11 Oeste 18 Sudoeste 0 -- -- 73
2020-03-19 15:00:00 18 9 Oeste 22 Sudoeste 0 -- -- 71
2020-03-19 14:00:00 18.1 13 Oeste 21 Sudoeste 0 -- -- 68
2020-03-19 13:00:00 17.1 6 Noroeste 12 Noroeste 0 -- -- 73
2020-03-19 12:00:00 16.2 6 Noroeste 10 Noroeste 0 -- -- 72
2020-03-19 11:00:00 14.9 5 Oeste 10 Oeste 0 -- -- 81
2020-03-19 10:00:00 13.2 6 Noroeste 11 Oeste 0 -- -- 85
2020-03-19 09:00:00 11 5 Este 8 Este 0 -- -- 92
2020-03-19 08:00:00 10.3 4 Este 8 Sudeste 0 -- -- 92
2020-03-19 07:00:00 10.9 3 Este 13 Sudeste 0 -- -- 89
2020-03-19 06:00:00 11 7 Este 13 Sudeste 0 -- -- 90
2020-03-19 05:00:00 11.4 5 Sudeste 9 Este 0 -- -- 88
2020-03-19 04:00:00 11.9 5 Sudeste 10 Este 0 -- -- 86
2020-03-19 03:00:00 11.9 5 Este 6 Este 0 -- -- 88
2020-03-19 02:00:00 12.8 2 Sudeste 5 Sur 0 -- -- 82
2020-03-19 01:00:00 13.9 2 Sur 4 Sudeste 0 -- -- 78
2020-03-19 00:00:00 15.5 3 Oeste 13 Norte 0 -- -- 71
2020-03-18 23:00:00 16.5 9 Norte 18 Norte 0 -- -- 66
2020-03-18 22:00:00 17.9 3 Sudoeste 6 Norte 0 -- -- 66
2020-03-18 21:00:00 19.5 5 Norte 14 Este 0 -- -- 62
2020-03-18 20:00:00 19.5 6 Sudeste 10 Este 0 -- -- 66
2020-03-18 19:00:00 21.9 3 Oeste 12 Oeste 0 -- -- 57
2020-03-18 18:00:00 22.7 8 Oeste 15 Oeste 0 -- -- 54
2020-03-18 17:00:00 23 8 Oeste 19 Oeste 0 -- -- 51
2020-03-18 16:00:00 23.6 10 Noroeste 18 Norte 0 -- -- 45
2020-03-18 15:00:00 23.5 12 Norte 20 Nordeste 0 -- -- 44
2020-03-18 14:00:00 22.6 11 Norte 19 Norte 0 -- -- 51
2020-03-18 13:00:00 20.3 9 Norte 14 Norte 0 -- -- 61
2020-03-18 12:00:00 19.1 5 Norte 7 Norte 0 -- -- 65
2020-03-18 11:00:00 16.7 3 Nordeste 6 Este 0 -- -- 71
2020-03-18 10:00:00 14.3 2 Este 5 Este 0 -- -- 79
2020-03-18 09:00:00 10.8 4 Sudeste 8 Sudeste 0 -- -- 88
2020-03-18 08:00:00 9.2 2 Nordeste 7 Sudeste 0 -- -- 90
2020-03-18 07:00:00 9.3 5 Este 10 Este 0 -- -- 90
2020-03-18 06:00:00 9.7 3 Norte 9 Este 0 -- -- 92
2020-03-18 05:00:00 9.4 4 Este 7 Este 0 -- -- 92
2020-03-18 04:00:00 9.8 3 Este 7 Este 0 -- -- 91
2020-03-18 03:00:00 10.5 5 Sudeste 10 Sudeste 0 -- -- 89
2020-03-18 02:00:00 11 5 Este 8 Sudeste 0 -- -- 87
2020-03-18 01:00:00 12.4 3 Sudeste 12 Este 0 -- -- 81
2020-03-18 00:00:00 13.5 6 Sudeste 12 Sudeste 0 -- -- 77
2020-03-17 23:00:00 14.6 3 Noroeste 8 Este 0 -- -- 72
2020-03-17 22:00:00 15.9 6 Este 15 Sudeste 0 -- -- 66
2020-03-17 21:00:00 17 5 Sur 12 Este 0 -- -- 64
2020-03-17 20:00:00 18.3 8 Este 12 Nordeste 0 -- -- 62
2020-03-17 19:00:00 19.9 7 Nordeste 22 Nordeste 0 -- -- 60
2020-03-17 18:00:00 20.4 11 Norte 27 Norte 0 -- -- 57
2020-03-17 17:00:00 20.5 16 Nordeste 27 Nordeste 0 -- -- 54
2020-03-17 16:00:00 19.8 14 Norte 30 Norte 0 -- -- 57
2020-03-17 15:00:00 19 16 Norte 28 Norte 0 -- -- 57
2020-03-17 14:00:00 17.9 13 Norte 25 Norte 0 -- -- 61
2020-03-17 13:00:00 16.5 14 Nordeste 30 Nordeste 0 -- -- 61
2020-03-17 12:00:00 15 13 Nordeste 26 Norte 0 -- -- 62
2020-03-17 11:00:00 13.4 11 Nordeste 28 Este 0 -- -- 64
2020-03-17 10:00:00 12.2 17 Este 30 Sudeste 0 -- -- 66
2020-03-17 09:00:00 9.6 12 Nordeste 35 Este 0 -- -- 74
2020-03-17 08:00:00 8.6 12 Nordeste 23 Este 0 -- -- 76
2020-03-17 07:00:00 8.5 5 Nordeste 26 Norte 0 -- -- 76
2020-03-17 06:00:00 8.6 3 Norte 27 Nordeste 0 -- -- 75
2020-03-17 05:00:00 8.9 8 Nordeste 29 Este 0 -- -- 74
2020-03-17 04:00:00 8.9 5 Oeste 37 Nordeste 0 -- -- 75
2020-03-17 03:00:00 9.4 6 Este 41 Este 0 -- -- 74
2020-03-17 02:00:00 9.4 13 Este 42 Nordeste 0 -- -- 75
2020-03-17 01:00:00 9.3 16 Este 40 Este 0 -- -- 76
2020-03-17 00:00:00 9.4 10 Nordeste 35 Norte 0 -- -- 76
2020-03-16 23:00:00 9.5 19 Nordeste 38 Norte 0 -- -- 76
2020-03-16 22:00:00 9.5 10 Nordeste 31 Este 0 -- -- 78
2020-03-16 21:00:00 10 15 Nordeste 36 Nordeste 0 -- -- 75
2020-03-16 20:00:00 10.8 15 Nordeste 31 Nordeste 0 -- -- 71
2020-03-16 19:00:00 12.1 14 Nordeste 46 Nordeste 0 -- -- 64
2020-03-16 18:00:00 12.3 18 Nordeste 40 Nordeste 0 -- -- 65
2020-03-16 17:00:00 13.3 20 Nordeste 39 Nordeste 0 -- -- 60
2020-03-16 16:00:00 13.6 18 Nordeste 46 Norte 0 -- -- 61
2020-03-16 15:00:00 13.8 17 Nordeste 51 Nordeste 0 -- -- 62
2020-03-16 14:00:00 14.1 18 Nordeste 40 Nordeste 0 -- -- 55
2020-03-16 13:00:00 12.8 18 Nordeste 31 Norte 0 -- -- 67
2020-03-16 12:00:00 11.6 15 Nordeste 27 Norte 0 -- -- 73
2020-03-16 11:00:00 10.1 12 Norte 27 Este 0.2 -- -- 82
2020-03-16 10:00:00 9.2 8 Nordeste 14 Nordeste 0 -- -- 86
2020-03-16 09:00:00 7.1 7 Nordeste 14 Este 0 -- -- 90
2020-03-16 08:00:00 6.3 8 Nordeste 18 Nordeste 0 -- -- 93
2020-03-16 07:00:00 6.5 7 Nordeste 24 Nordeste 0 -- -- 90
2020-03-16 06:00:00 5.5 0 Calma 6 Norte 0 -- -- 93
2020-03-16 05:00:00 5.8 0 Calma 9 Norte 0 -- -- 92
2020-03-16 04:00:00 6.1 4 Este 12 Nordeste 0 -- -- 92
2020-03-16 03:00:00 5.6 3 Nordeste 10 Este 0 -- -- 97
2020-03-16 02:00:00 4.6 0 Calma 8 Este 0 -- -- 98
2020-03-16 01:00:00 4.6 3 Sudeste 6 Sur 0 -- -- 97
2020-03-16 00:00:00 5.2 5 Sur 7 Sur 0 -- -- 94
2020-03-15 23:00:00 6 3 Sudeste 14 Norte 0 -- -- 94
2020-03-15 22:00:00 5.7 7 Sur 9 Sur 0 -- -- 93
2020-03-15 21:00:00 7 3 Sur 32 Norte 1.2 -- -- 88
2020-03-15 20:00:00 9.4 9 Norte 20 Noroeste 0 -- -- 75
2020-03-15 19:00:00 10.2 3 Oeste 17 Noroeste 0 -- -- 79
2020-03-15 18:00:00 9.8 6 Oeste 20 Norte 0.2 -- -- 75
2020-03-15 17:00:00 9.1 8 Norte 31 Noroeste 0.2 -- -- 83
2020-03-15 16:00:00 10.1 5 Noroeste 10 Oeste 0.4 -- -- 84
2020-03-15 15:00:00 9.8 5 Norte 18 Norte 0 -- -- 84
2020-03-15 14:00:00 9.7 4 Nordeste 18 Norte 0.6 -- -- 92
2020-03-15 13:00:00 9.3 10 Norte 33 Noroeste 1.6 -- -- 91
2020-03-15 12:00:00 9.8 18 Norte 40 Oeste 2.8 -- -- 94
2020-03-15 11:00:00 13.7 14 Sur 36 Sur 0 -- -- 81
2020-03-15 10:00:00 13 6 Sur 19 Sudeste 0 -- -- 81
2020-03-15 09:00:00 9.5 3 Este 8 Noroeste 0 -- -- 98
2020-03-15 08:00:00 8.7 0 Calma 8 Este 0 -- -- 98
2020-03-15 07:00:00 8.1 3 Sudeste 14 Sudeste 0 -- -- 99
2020-03-15 06:00:00 7.4 7 Sudeste 11 Sudeste 0 -- -- 100
2020-03-15 05:00:00 6.2 4 Sudeste 6 Este 0 -- -- 97
2020-03-15 04:00:00 6.9 0 Calma 8 Noroeste 0 -- -- 97
2020-03-15 03:00:00 7.6 2 Noroeste 8 Sudeste 0 -- -- 95
2020-03-15 02:00:00 8.3 4 Sudeste 6 Sudeste 0 -- -- 95
2020-03-15 01:00:00 8.7 3 Sudeste 8 Sudeste 0 -- -- 92
2020-03-15 00:00:00 9.5 6 Sur 8 Sur 0 -- -- 89
2020-03-14 23:00:00 11.1 4 Sudoeste 15 Norte 0 -- -- 83
2020-03-14 22:00:00 12.1 5 Norte 12 Norte 0 -- -- 81
2020-03-14 21:00:00 12.5 4 Sudeste 6 Este 0 -- -- 84
2020-03-14 20:00:00 14.9 3 Sur 13 Sudoeste 0 -- -- 73
2020-03-14 19:00:00 17.1 8 Sudoeste 14 Sudoeste 0 -- -- 67
2020-03-14 18:00:00 18 10 Oeste 18 Oeste 0 -- -- 65
2020-03-14 17:00:00 19.9 8 Norte 15 Norte 0 -- -- 51
2020-03-14 16:00:00 19.4 8 Norte 19 Norte 0 -- -- 54
2020-03-14 15:00:00 18.1 10 Norte 23 Norte 0 -- -- 57
2020-03-14 14:00:00 16.4 13 Norte 28 Norte 0 -- -- 62
2020-03-14 13:00:00 14.7 14 Norte 35 Nordeste 0 -- -- 65
2020-03-14 12:00:00 13.5 14 Norte 24 Nordeste 0 -- -- 68
2020-03-14 11:00:00 11.4 11 Norte 18 Norte 0 -- -- 76
2020-03-14 10:00:00 9.6 6 Norte 12 Norte 0 -- -- 81
2020-03-14 09:00:00 7.4 4 Norte 12 Noroeste 0 -- -- 88
2020-03-14 08:00:00 6.5 5 Norte 16 Norte 0 -- -- 90
2020-03-14 07:00:00 7.4 5 Norte 19 Nordeste 0 -- -- 88
2020-03-14 06:00:00 7.4 7 Norte 16 Norte 0 -- -- 89
2020-03-14 05:00:00 7.7 4 Norte 15 Norte 0 -- -- 88
2020-03-14 04:00:00 8.2 6 Norte 14 Noroeste 0 -- -- 87
2020-03-14 03:00:00 8.9 4 Norte 21 Nordeste 0 -- -- 84
2020-03-14 02:00:00 9.4 5 Nordeste 17 Nordeste 0 -- -- 83
2020-03-14 01:00:00 9.7 9 Nordeste 30 Nordeste 0 -- -- 83
2020-03-14 00:00:00 9.8 7 Nordeste 29 Nordeste 0 -- -- 84
2020-03-13 23:00:00 9.9 8 Nordeste 27 Nordeste 0 -- -- 84
2020-03-13 22:00:00 10.5 13 Norte 35 Este 0 -- -- 82
2020-03-13 21:00:00 10.9 10 Nordeste 35 Norte 0 -- -- 80
2020-03-13 20:00:00 12.4 14 Nordeste 29 Nordeste 0 -- -- 75
2020-03-13 19:00:00 14.6 12 Nordeste 28 Norte 0 -- -- 67
2020-03-13 18:00:00 15.7 13 Nordeste 28 Nordeste 0 -- -- 63
2020-03-13 17:00:00 15.9 20 Nordeste 39 Nordeste 0 -- -- 62
2020-03-13 16:00:00 16 15 Nordeste 41 Nordeste 0 -- -- 63
2020-03-13 15:00:00 14.8 18 Norte 36 Norte 0 -- -- 67
2020-03-13 14:00:00 15.3 19 Nordeste 41 Nordeste 0 -- -- 66
2020-03-13 13:00:00 14.2 26 Nordeste 43 Nordeste 0 -- -- 66
2020-03-13 12:00:00 12.7 18 Nordeste 42 Nordeste 0 -- -- 71
2020-03-13 11:00:00 13 20 Nordeste 37 Nordeste 0 -- -- 68
2020-03-13 10:00:00 11.8 16 Nordeste 31 Nordeste 0 -- -- 73
2020-03-13 09:00:00 10.3 12 Nordeste 24 Nordeste 0 -- -- 78
2020-03-13 08:00:00 9.7 14 Nordeste 29 Nordeste 0 -- -- 79
2020-03-13 07:00:00 10 11 Nordeste 36 Nordeste 0 -- -- 76
2020-03-13 06:00:00 10.1 21 Nordeste 46 Este 0 -- -- 75
2020-03-13 05:00:00 10.2 21 Nordeste 51 Nordeste 0 -- -- 74
2020-03-13 04:00:00 9.9 13 Nordeste 49 Este 0 -- -- 76
2020-03-13 03:00:00 9.6 18 Nordeste 44 Nordeste 0 -- -- 76
2020-03-13 02:00:00 9.3 18 Nordeste 37 Este 0 -- -- 79
2020-03-13 01:00:00 9.5 13 Nordeste 34 Nordeste 0 -- -- 79
2020-03-13 00:00:00 10.1 16 Nordeste 33 Nordeste 0 -- -- 77
2020-03-12 23:00:00 10.6 12 Nordeste 33 Este 0 -- -- 76
2020-03-12 22:00:00 10.7 15 Nordeste 31 Este 0 -- -- 77
2020-03-12 21:00:00 11.3 15 Nordeste 34 Nordeste 0 -- -- 76
2020-03-12 20:00:00 11.8 10 Nordeste 29 Nordeste 0 -- -- 74
2020-03-12 19:00:00 12.5 17 Nordeste 34 Nordeste 0 -- -- 71
2020-03-12 18:00:00 13.1 14 Nordeste 39 Norte 0 -- -- 73
2020-03-12 17:00:00 13.7 23 Nordeste 41 Nordeste 0 -- -- 70
2020-03-12 16:00:00 14.9 19 Nordeste 38 Norte 0 -- -- 71
2020-03-12 15:00:00 16.1 15 Norte 41 Nordeste 0 -- -- 69
2020-03-12 14:00:00 15.9 19 Nordeste 36 Nordeste 0 -- -- 69
2020-03-12 13:00:00 15.5 15 Nordeste 29 Nordeste 0 -- -- 71
2020-03-12 12:00:00 14.7 12 Norte 26 Nordeste 0 -- -- 74
2020-03-12 11:00:00 15.3 11 Nordeste 25 Nordeste 0 -- -- 75
2020-03-12 10:00:00 13.8 13 Nordeste 24 Nordeste 0 -- -- 84
2020-03-12 09:00:00 12.3 12 Nordeste 22 Nordeste 0 -- -- 89
2020-03-12 08:00:00 10.8 10 Nordeste 18 Nordeste 0 -- -- 93
2020-03-12 07:00:00 10.7 6 Nordeste 17 Norte 0 -- -- 92
2020-03-12 06:00:00 11.3 7 Norte 11 Norte 0 -- -- 91
2020-03-12 05:00:00 11.5 7 Norte 16 Este 0 -- -- 89
2020-03-12 04:00:00 11.8 7 Norte 19 Nordeste 0 -- -- 88
2020-03-12 03:00:00 12.3 9 Nordeste 17 Nordeste 0 -- -- 89
2020-03-12 02:00:00 12.5 5 Norte 12 Nordeste 0 -- -- 91
2020-03-12 01:00:00 13.4 4 Norte 10 Norte 0 -- -- 88
2020-03-12 00:00:00 14.3 4 Nordeste 9 Nordeste 0 -- -- 86
2020-03-11 23:00:00 14.4 3 Noroeste 8 Noroeste 0 -- -- 90
2020-03-11 22:00:00 14.1 3 Oeste 7 Noroeste 0 -- -- 92
2020-03-11 21:00:00 14 3 Sur 11 Noroeste 0 -- -- 89
2020-03-11 20:00:00 14.8 8 Noroeste 20 Noroeste 0 -- -- 87
2020-03-11 19:00:00 15.8 12 Noroeste 21 Noroeste 0 -- -- 82
2020-03-11 18:00:00 17.3 12 Noroeste 16 Noroeste 0 -- -- 78
2020-03-11 17:00:00 17.7 6 Oeste 14 Sudoeste 0 -- -- 76
2020-03-11 16:00:00 17.6 10 Sudoeste 18 Oeste 0 -- -- 78
2020-03-11 15:00:00 17.1 11 Noroeste 16 Oeste 0 -- -- 78
2020-03-11 14:00:00 16.4 6 Noroeste 11 Oeste 0 -- -- 82
2020-03-11 13:00:00 14.5 4 Este 10 Nordeste 0 -- -- 89
2020-03-11 12:00:00 12.9 6 Noroeste 13 Norte 0 -- -- 93
2020-03-11 11:00:00 12 4 Sudeste 10 Este 0 -- -- 96
2020-03-11 10:00:00 11.4 6 Sudeste 13 Norte 0 -- -- 99
2020-03-11 09:00:00 11.5 7 Norte 14 Norte 0 -- -- 99
2020-03-11 08:00:00 11 2 Sudeste 9 Sudeste 0 -- -- 100
2020-03-11 07:00:00 11.2 4 Sudeste 8 Sudeste 0 -- -- 100
2020-03-11 06:00:00 11.2 5 Sudeste 10 Sudeste 0 -- -- 99
2020-03-11 05:00:00 11.4 4 Sudeste 7 Sudeste 0 -- -- 99
2020-03-11 04:00:00 11.8 3 Sudeste 6 Sudeste 0 -- -- 98
2020-03-11 03:00:00 11.9 0 Calma 3 Sudeste 0 -- -- 98
2020-03-11 02:00:00 11.9 0 Calma 4 Este 0 -- -- 98
2020-03-11 01:00:00 11.5 2 Sudeste 6 Sur 0 -- -- 98
2020-03-11 00:00:00 11.2 3 Sur 7 Sur 0 -- -- 98
2020-03-10 23:00:00 11.4 2 Sudeste 6 Sudoeste 0 -- -- 96
2020-03-10 22:00:00 12.1 3 Sur 5 Sudeste 0 -- -- 95
2020-03-10 21:00:00 12.6 3 Sur 5 Sur 0 -- -- 92
2020-03-10 20:00:00 13.4 2 Sudoeste 9 Oeste 0 -- -- 90
2020-03-10 19:00:00 14.5 7 Oeste 13 Sudoeste 0 -- -- 83
2020-03-10 18:00:00 15.2 6 Oeste 17 Oeste 0 -- -- 81
2020-03-10 17:00:00 15.2 10 Oeste 17 Sudoeste 0 -- -- 82
2020-03-10 16:00:00 15.2 9 Oeste 22 Sudoeste 0 -- -- 79
2020-03-10 15:00:00 15.4 11 Oeste 23 Oeste 0 -- -- 78
2020-03-10 14:00:00 14.7 9 Oeste 21 Oeste 0 -- -- 80
2020-03-10 13:00:00 13.5 12 Sudoeste 24 Oeste 0 -- -- 83
2020-03-10 12:00:00 13.6 9 Sudoeste 22 Sudoeste 0 -- -- 82
2020-03-10 11:00:00 12.7 11 Sudoeste 20 Sudoeste 0 -- -- 86
2020-03-10 10:00:00 12 6 Sur 15 Sur 0 -- -- 89
2020-03-10 09:00:00 10.3 5 Sur 13 Sur 0 -- -- 99
2020-03-10 08:00:00 9.3 4 Sudeste 5 Sudeste 0 -- -- 99
2020-03-10 07:00:00 9 0 Calma 5 Este 0 -- -- 99
2020-03-10 06:00:00 8.6 3 Sudeste 5 Sudeste 0 -- -- 99
2020-03-10 05:00:00 8.6 3 Sudeste 4 Este 0 -- -- 99
2020-03-10 04:00:00 8.1 3 Este 5 Sur 0 -- -- 99
2020-03-10 03:00:00 8.1 3 Nordeste 6 Sur 0 -- -- 99
2020-03-10 02:00:00 8.2 4 Sudeste 8 Sur 0 -- -- 98
2020-03-10 01:00:00 8.8 4 Sur 9 Sur 0 -- -- 96
2020-03-10 00:00:00 9.5 5 Sur 8 Sur 0 -- -- 94
2020-03-09 23:00:00 9.8 3 Sudeste 6 Este 0 -- -- 93
2020-03-09 22:00:00 10.5 4 Este 11 Sudoeste 0 -- -- 90
2020-03-09 21:00:00 12 7 Sudoeste 14 Sudoeste 0 -- -- 84
2020-03-09 20:00:00 12.6 6 Sudoeste 16 Oeste 0 -- -- 80
2020-03-09 19:00:00 13.8 9 Oeste 18 Oeste 0 -- -- 73
2020-03-09 18:00:00 14.7 10 Oeste 22 Oeste 0 -- -- 72
2020-03-09 17:00:00 15 13 Oeste 23 Sudoeste 0 -- -- 70
2020-03-09 16:00:00 15.2 11 Oeste 18 Oeste 0 -- -- 68
2020-03-09 15:00:00 15 10 Oeste 17 Oeste 0 -- -- 67
2020-03-09 14:00:00 14.6 10 Noroeste 14 Noroeste 0 -- -- 73
2020-03-09 13:00:00 13.7 9 Noroeste 15 Noroeste 0 -- -- 82
2020-03-09 12:00:00 13 7 Noroeste 9 Noroeste 0 -- -- 85
2020-03-09 11:00:00 11.4 5 Noroeste 13 Sudeste 0 -- -- 90
2020-03-09 10:00:00 9 3 Este 6 Sudeste 0 -- -- 100
2020-03-09 09:00:00 7.6 3 Este 8 Sudeste 0 -- -- 100
2020-03-09 08:00:00 7.1 7 Sudeste 12 Sudeste 0 -- -- 100
2020-03-09 07:00:00 7.2 4 Sudeste 6 Sudeste 0 -- -- 100
2020-03-09 06:00:00 7.2 2 Este 5 Sudeste 0 -- -- 99
2020-03-09 05:00:00 7.7 4 Sudeste 6 Sur 0 -- -- 98
2020-03-09 04:00:00 8.3 0 Calma 6 Sudeste 0 -- -- 97
2020-03-09 03:00:00 9.3 2 Este 7 Sudeste 0 -- -- 97
2020-03-09 02:00:00 9.9 3 Sudeste 9 Sudeste 0 -- -- 98
2020-03-09 01:00:00 10.3 5 Este 7 Sur 0 -- -- 97
2020-03-09 00:00:00 10.3 3 Este 6 Este 0 -- -- 97
2020-03-08 23:00:00 10.3 4 Este 6 Sur 0 -- -- 96
2020-03-08 22:00:00 10.7 3 Sudeste 6 Sudeste 0 -- -- 92
2020-03-08 21:00:00 11.5 3 Este 13 Oeste 0 -- -- 88
2020-03-08 20:00:00 12.8 5 Oeste 22 Oeste 0 -- -- 82
2020-03-08 19:00:00 13.6 14 Oeste 29 Oeste 0 -- -- 76
2020-03-08 18:00:00 14.6 13 Oeste 23 Oeste 0 -- -- 80
2020-03-08 17:00:00 15.1 15 Oeste 25 Sudoeste 0 -- -- 79
2020-03-08 16:00:00 14.8 14 Sudoeste 27 Sudoeste 0 -- -- 89
2020-03-08 15:00:00 13.3 17 Sudoeste 33 Sudoeste 0.2 -- -- 98
2020-03-08 14:00:00 12.4 16 Sudoeste 36 Sudoeste 0 -- -- 99
2020-03-08 13:00:00 12.6 20 Sur 40 Sur 0.6 -- -- 98
2020-03-08 12:00:00 12.5 19 Sur 42 Sudoeste 0 -- -- 99
2020-03-08 11:00:00 11.6 13 Sur 30 Sudeste 0.8 -- -- 99
2020-03-08 10:00:00 10.7 12 Sur 23 Sur 2.2 -- -- 100
2020-03-08 09:00:00 10.4 10 Sudeste 26 Sur 2.6 -- -- 98
2020-03-08 08:00:00 10.6 9 Sur 23 Sudeste 1.4 -- -- 97
2020-03-08 07:00:00 10.9 10 Sur 23 Sur 0.2 -- -- 93
2020-03-08 06:00:00 11.4 11 Sur 23 Sur 0 -- -- 86
2020-03-08 05:00:00 11.8 8 Sur 21 Sur 0 -- -- 82
2020-03-08 04:00:00 11.7 9 Sur 19 Sur 0 -- -- 78
2020-03-08 03:00:00 11.4 6 Sudoeste 16 Sur 0 -- -- 76
2020-03-08 02:00:00 11.3 10 Sur 18 Sur 0 -- -- 74
2020-03-08 01:00:00 11.3 9 Sur 15 Sur 0 -- -- 75
2020-03-08 00:00:00 11.9 6 Sur 15 Sudoeste 0 -- -- 75
2020-03-07 23:00:00 12 8 Sur 16 Sur 0 -- -- 72
2020-03-07 22:00:00 11.7 7 Sur 16 Sur 0 -- -- 75
2020-03-07 21:00:00 11 7 Sur 11 Sur 0 -- -- 81
2020-03-07 20:00:00 12.3 5 Sur 10 Sudoeste 0 -- -- 75
2020-03-07 19:00:00 13.3 7 Sudoeste 22 Oeste 0 -- -- 73
2020-03-07 18:00:00 14.6 12 Oeste 24 Oeste 0 -- -- 67
2020-03-07 17:00:00 14.9 11 Sudoeste 18 Sudoeste 0 -- -- 68
2020-03-07 16:00:00 14.6 6 Oeste 16 Oeste 0 -- -- 70
2020-03-07 15:00:00 13.8 8 Oeste 17 Sudoeste 0 -- -- 74
2020-03-07 14:00:00 13.6 9 Sudoeste 16 Sudoeste 0 -- -- 75
2020-03-07 13:00:00 13 6 Oeste 21 Noroeste 0 -- -- 82
2020-03-07 12:00:00 14 3 Norte 10 Oeste 0 -- -- 79
2020-03-07 11:00:00 12.1 8 Noroeste 15 Oeste 0 -- -- 88
2020-03-07 10:00:00 11 0 Calma 6 Noroeste 0 -- -- 94
2020-03-07 09:00:00 8.9 2 Nordeste 7 Sudeste 0 -- -- 100
2020-03-07 08:00:00 7.8 4 Este 8 Sudeste 0 -- -- 99
2020-03-07 07:00:00 7.9 6 Sudeste 11 Sudeste 0 -- -- 99
2020-03-07 06:00:00 8 5 Sudeste 7 Sudeste 0 -- -- 99
2020-03-07 05:00:00 8.6 3 Sudeste 4 Sur 0 -- -- 96
2020-03-07 04:00:00 9.5 0 Calma 5 Sudoeste 0 -- -- 95
2020-03-07 03:00:00 9.9 2 Sudeste 6 Sudeste 0 -- -- 93
2020-03-07 02:00:00 10 5 Este 7 Sudeste 0 -- -- 93
2020-03-07 01:00:00 10.5 3 Este 12 Sudeste 0 -- -- 91
2020-03-07 00:00:00 10.6 6 Sudeste 9 Sudeste 0 -- -- 90
2020-03-06 23:00:00 11 2 Sudeste 6 Sur 0 -- -- 87
2020-03-06 22:00:00 11 2 Sudeste 10 Nordeste 0 -- -- 86
2020-03-06 21:00:00 11.6 5 Norte 14 Norte 0 -- -- 79
2020-03-06 20:00:00 12 6 Noroeste 15 Norte 0 -- -- 73
2020-03-06 19:00:00 12.8 9 Norte 21 Norte 0 -- -- 68
2020-03-06 18:00:00 13.5 10 Norte 27 Noroeste 0 -- -- 56
2020-03-06 17:00:00 14 13 Noroeste 30 Noroeste 0 -- -- 62
2020-03-06 16:00:00 14.7 16 Noroeste 28 Noroeste 0 -- -- 52
2020-03-06 15:00:00 14.1 17 Noroeste 31 Noroeste 0 -- -- 62
2020-03-06 14:00:00 14.1 15 Norte 31 Noroeste 0 -- -- 59
2020-03-06 13:00:00 13.1 15 Noroeste 35 Noroeste 0 -- -- 64
2020-03-06 12:00:00 12.6 13 Noroeste 31 Noroeste 0 -- -- 70
2020-03-06 11:00:00 11.7 9 Norte 17 Nordeste 0 -- -- 76
2020-03-06 10:00:00 10.3 10 Norte 21 Norte 0 -- -- 79
2020-03-06 09:00:00 9.3 13 Noroeste 27 Noroeste 0.2 -- -- 85
2020-03-06 08:00:00 8.9 6 Nordeste 12 Norte 0.2 -- -- 88
2020-03-06 07:00:00 9.2 4 Norte 17 Noroeste 0.2 -- -- 88
2020-03-06 06:00:00 9.5 11 Oeste 27 Oeste 0 -- -- 84
2020-03-06 05:00:00 9.9 17 Oeste 32 Oeste 0.2 -- -- 83
2020-03-06 04:00:00 10.1 14 Noroeste 36 Oeste 0 -- -- 79
2020-03-06 03:00:00 10.5 17 Noroeste 33 Noroeste 0 -- -- 75
2020-03-06 02:00:00 11 18 Oeste 32 Noroeste 0 -- -- 73
2020-03-06 01:00:00 11.3 15 Noroeste 30 Oeste 0 -- -- 81
2020-03-06 00:00:00 11 14 Oeste 39 Noroeste 0.4 -- -- 89
2020-03-05 23:00:00 11.4 27 Oeste 49 Noroeste 1.2 -- -- 93
2020-03-05 22:00:00 11.4 11 Oeste 41 Oeste 0.2 -- -- 91
2020-03-05 21:00:00 11.6 15 Oeste 38 Oeste 0.6 -- -- 91
2020-03-05 20:00:00 11.4 13 Oeste 30 Noroeste 0 -- -- 89
2020-03-05 19:00:00 12.2 15 Oeste 34 Noroeste 0 -- -- 82
2020-03-05 18:00:00 12 11 Oeste 39 Oeste 0.6 -- -- 89
2020-03-05 17:00:00 14.4 21 Noroeste 37 Oeste 0 -- -- 66
2020-03-05 16:00:00 14.5 23 Oeste 39 Oeste 0 -- -- 68
2020-03-05 15:00:00 14.3 18 Noroeste 35 Noroeste 0 -- -- 73
2020-03-05 14:00:00 13.1 5 Norte 27 Oeste 0 -- -- 81
2020-03-05 13:00:00 13.7 11 Noroeste 26 Noroeste 0 -- -- 77
2020-03-05 12:00:00 13.5 15 Noroeste 32 Noroeste 0 -- -- 79
2020-03-05 11:00:00 12.2 19 Noroeste 37 Oeste 0.2 -- -- 93
2020-03-05 10:00:00 12.2 15 Oeste 38 Oeste 0 -- -- 91
2020-03-05 09:00:00 12.2 17 Oeste 38 Oeste 0.2 -- -- 87
2020-03-05 08:00:00 12.2 19 Oeste 44 Oeste 0 -- -- 86
2020-03-05 07:00:00 12.4 21 Oeste 42 Oeste 0 -- -- 85
2020-03-05 06:00:00 12.2 21 Oeste 41 Sudoeste 0 -- -- 88
2020-03-05 05:00:00 12.4 20 Oeste 40 Sudoeste 1.4 -- -- 98
2020-03-05 04:00:00 12.6 14 Oeste 41 Oeste 2 -- -- 100
2020-03-05 03:00:00 12.3 16 Oeste 53 Oeste 5.8 -- -- 100
2020-03-05 02:00:00 14.3 27 Sudoeste 59 Sudoeste 10.2 -- -- 100
2020-03-05 01:00:00 14.8 24 Sudoeste 69 Sudoeste 3.2 -- -- 99
2020-03-05 00:00:00 15.1 23 Sudoeste 54 Sudoeste 0.2 -- -- 97